Time;durP1;ratioP1;P1;durP2;ratioP2;P2;SDS_P1;SDS_P2;PMS_P1;PMS_P2;Temp;Humidity;BMP_temperature;BMP_pressure;BME280_temperature;BME280_humidity;BME280_pressure;Samples;Min_cycle;Max_cycle;Signal;HPM_P1;HPM_P2
2022/08/18 00:00:13;;;;;;;8.33;7.53;;;26.20;99.90;;;;;;5054661;28;20986;-51
2022/08/18 00:02:43;;;;;;;16.60;10.07;;;26.20;99.90;;;;;;5054661;28;20930;-53
2022/08/18 00:05:11;;;;;;;10.53;9.20;;;26.20;99.90;;;;;;5054095;28;20466;-57
2022/08/18 00:07:38;;;;;;;9.73;8.73;;;26.20;99.90;;;;;;5055279;28;20469;-55
2022/08/18 00:10:07;;;;;;;9.00;8.17;;;26.10;99.90;;;;;;5058884;28;20450;-53
2022/08/18 00:12:37;;;;;;;9.63;8.63;;;26.10;99.90;;;;;;5058507;28;20509;-52
2022/08/18 00:15:05;;;;;;;15.07;9.70;;;26.10;99.90;;;;;;5057853;28;20482;-50
2022/08/18 00:17:33;;;;;;;10.23;9.23;;;26.10;99.90;;;;;;5057675;28;20522;-54
2022/08/18 00:20:02;;;;;;;9.93;8.90;;;26.10;99.90;;;;;;5057370;28;20475;-54
2022/08/18 00:22:29;;;;;;;10.63;8.63;;;26.10;99.90;;;;;;5057473;28;20446;-53
2022/08/18 00:24:57;;;;;;;11.20;9.60;;;26.10;99.90;;;;;;5057360;28;20573;-54
2022/08/18 00:27:26;;;;;;;8.90;8.00;;;26.00;99.90;;;;;;5057447;28;20447;-56
2022/08/18 00:29:55;;;;;;;10.90;8.27;;;26.00;99.90;;;;;;5057237;28;20802;-53
2022/08/18 00:32:24;;;;;;;10.27;8.57;;;26.00;99.90;;;;;;5057220;28;20482;-54
2022/08/18 00:34:51;;;;;;;12.33;9.37;;;26.00;99.90;;;;;;5057264;28;20954;-54
2022/08/18 00:37:19;;;;;;;9.70;8.80;;;26.00;99.90;;;;;;5056913;28;20443;-52
2022/08/18 00:39:46;;;;;;;9.77;8.77;;;26.00;99.90;;;;;;5057085;28;20471;-63
2022/08/18 00:42:17;;;;;;;9.43;8.53;;;26.00;99.90;;;;;;5058288;28;20799;-55
2022/08/18 00:44:44;;;;;;;10.07;8.37;;;26.00;99.90;;;;;;5058078;28;20485;-54
2022/08/18 00:47:11;;;;;;;9.73;8.10;;;25.90;99.90;;;;;;5058204;28;20533;-56
2022/08/18 00:49:41;;;;;;;12.37;8.90;;;25.90;99.90;;;;;;5057190;28;20471;-53
2022/08/18 00:52:09;;;;;;;9.00;8.10;;;25.90;99.90;;;;;;5057027;28;20475;-55
2022/08/18 00:54:40;;;;;;;9.40;8.50;;;25.90;99.90;;;;;;5056752;28;20471;-55
2022/08/18 00:57:08;;;;;;;9.53;8.47;;;25.80;99.90;;;;;;5056508;28;20443;-55
2022/08/18 00:59:42;;;;;;;9.37;8.47;;;25.80;99.90;;;;;;5056432;28;20467;-54
2022/08/18 01:02:12;;;;;;;9.80;8.80;;;25.70;99.90;;;;;;5057023;28;20466;-53
2022/08/18 01:04:43;;;;;;;11.00;8.70;;;25.70;99.90;;;;;;5057016;28;20501;-54
2022/08/18 01:07:19;;;;;;;10.87;9.00;;;25.70;99.90;;;;;;5056374;28;20428;-54
2022/08/18 01:09:48;;;;;;;11.60;8.67;;;25.60;99.90;;;;;;5056490;28;20471;-54
2022/08/18 01:12:15;;;;;;;9.73;8.40;;;25.60;99.90;;;;;;5056119;28;20518;-54
2022/08/18 01:14:42;;;;;;;10.00;9.00;;;25.60;99.90;;;;;;5055905;28;20474;-53
2022/08/18 01:22:51;;;;;;;11.30;8.17;;;25.40;99.90;;;;;;5056808;28;20465;-51
2022/08/18 01:28:05;;;;;;;10.00;9.00;;;25.40;99.90;;;;;;5056436;28;20418;-52
2022/08/18 01:30:44;;;;;;;9.60;8.80;;;25.40;99.90;;;;;;5056268;28;20479;-54
2022/08/18 01:33:11;;;;;;;14.13;9.20;;;25.30;99.90;;;;;;5055894;28;20977;-54
2022/08/18 01:35:40;;;;;;;9.10;8.20;;;25.30;99.90;;;;;;5055589;28;20993;-54
2022/08/18 01:38:12;;;;;;;10.40;8.63;;;25.20;99.90;;;;;;5055828;28;21083;-52
2022/08/18 01:40:39;;;;;;;12.37;9.60;;;25.20;99.90;;;;;;5055706;28;20506;-54
2022/08/18 01:43:05;;;;;;;10.63;8.30;;;25.20;99.90;;;;;;5055698;28;20526;-54
2022/08/18 01:45:33;;;;;;;10.57;9.47;;;25.10;99.90;;;;;;5055493;28;20471;-55
2022/08/18 01:48:00;;;;;;;9.93;8.60;;;25.10;99.90;;;;;;5055806;28;20457;-54
2022/08/18 01:50:27;;;;;;;15.93;9.50;;;25.10;99.90;;;;;;5057499;28;20545;-52
2022/08/18 01:52:53;;;;;;;9.47;8.57;;;25.10;99.90;;;;;;5057005;28;20478;-52
2022/08/18 01:55:22;;;;;;;14.00;12.60;;;25.10;99.90;;;;;;5055519;28;20908;-54
2022/08/18 01:57:49;;;;;;;11.77;10.63;;;25.10;99.90;;;;;;5055261;28;20546;-54
2022/08/18 02:00:18;;;;;;;11.03;9.20;;;25.10;99.90;;;;;;5055122;28;20467;-55
2022/08/18 02:02:46;;;;;;;10.03;9.13;;;25.00;99.90;;;;;;5055732;28;20818;-53
2022/08/18 02:05:18;;;;;;;9.87;8.87;;;25.00;99.90;;;;;;5055182;28;20471;-49
2022/08/18 02:07:45;;;;;;;10.53;9.40;;;25.00;99.90;;;;;;5055461;28;20432;-52
2022/08/18 02:10:13;;;;;;;10.27;9.27;;;25.00;99.90;;;;;;5055341;28;20487;-53
2022/08/18 02:12:42;;;;;;;9.47;7.83;;;25.00;99.90;;;;;;5055509;28;20809;-52
2022/08/18 02:15:09;;;;;;;10.33;9.10;;;25.00;99.90;;;;;;5055907;28;20473;-54
2022/08/18 02:17:38;;;;;;;10.40;9.17;;;25.00;99.90;;;;;;5055736;28;20448;-57
2022/08/18 02:20:06;;;;;;;13.00;9.20;;;24.90;99.90;;;;;;5055631;28;20463;-55
2022/08/18 02:22:34;;;;;;;11.90;10.57;;;24.90;99.90;;;;;;5055826;28;20486;-59
2022/08/18 02:25:00;;;;;;;11.40;9.63;;;24.90;99.90;;;;;;5055673;28;20490;-55
2022/08/18 02:27:28;;;;;;;12.00;8.93;;;24.90;99.90;;;;;;5055435;28;20535;-54
2022/08/18 02:29:59;;;;;;;11.13;8.83;;;24.90;99.90;;;;;;5054338;28;20459;-54
2022/08/18 02:32:26;;;;;;;10.70;9.60;;;24.80;99.90;;;;;;5055008;28;20459;-52
2022/08/18 02:34:56;;;;;;;10.63;9.57;;;24.80;99.90;;;;;;5054887;28;20470;-56
2022/08/18 02:37:22;;;;;;;10.10;9.10;;;24.80;99.90;;;;;;5055084;28;20431;-54
2022/08/18 02:39:49;;;;;;;11.37;10.20;;;24.80;99.90;;;;;;5054893;28;20558;-54
2022/08/18 02:42:16;;;;;;;10.80;9.53;;;24.80;99.90;;;;;;5054822;28;20451;-55
2022/08/18 02:44:46;;;;;;;10.37;9.00;;;24.70;99.90;;;;;;5054813;28;20447;-54
2022/08/18 02:47:19;;;;;;;9.33;8.33;;;24.70;99.90;;;;;;5055356;28;20444;-54
2022/08/18 02:49:46;;;;;;;9.20;8.20;;;24.70;99.90;;;;;;5055553;28;20431;-64
2022/08/18 02:52:13;;;;;;;11.73;10.13;;;24.70;99.90;;;;;;5055791;28;20478;-52
2022/08/18 02:54:39;;;;;;;9.20;8.13;;;24.70;99.90;;;;;;5055683;28;20447;-59
2022/08/18 02:57:09;;;;;;;11.47;8.57;;;24.70;99.90;;;;;;5055965;28;20427;-54
2022/08/18 02:59:37;;;;;;;9.73;8.50;;;24.70;99.90;;;;;;5056073;28;20447;-56
2022/08/18 03:02:06;;;;;;;9.37;7.20;;;24.70;99.90;;;;;;5054939;28;20466;-53
2022/08/18 03:04:34;;;;;;;9.33;7.57;;;24.60;99.90;;;;;;5054676;28;20444;-55
2022/08/18 03:07:07;;;;;;;11.63;7.97;;;24.60;99.90;;;;;;5054511;28;20551;-55
2022/08/18 03:09:35;;;;;;;8.97;8.10;;;24.50;99.90;;;;;;5054514;28;20526;-55
2022/08/18 03:12:03;;;;;;;12.30;8.87;;;24.40;99.90;;;;;;5054163;28;20483;-52
2022/08/18 03:14:30;;;;;;;8.23;7.23;;;24.40;99.90;;;;;;5054112;28;20443;-54
2022/08/18 03:16:57;;;;;;;9.27;8.30;;;24.30;99.90;;;;;;5054407;28;20973;-53
2022/08/18 03:19:27;;;;;;;9.97;9.00;;;24.30;99.90;;;;;;5054409;28;20470;-51
2022/08/18 03:21:57;;;;;;;14.33;8.13;;;24.30;99.90;;;;;;5054175;28;20435;-54
2022/08/18 03:24:25;;;;;;;11.27;7.70;;;24.30;99.90;;;;;;5054323;28;20432;-53
2022/08/18 03:26:54;;;;;;;14.07;8.90;;;24.30;99.90;;;;;;5054194;28;20451;-53
2022/08/18 03:29:21;;;;;;;8.80;7.90;;;24.30;99.90;;;;;;5054372;28;20461;-55
2022/08/18 03:31:48;;;;;;;11.00;9.27;;;24.20;99.90;;;;;;5054147;28;20451;-55
2022/08/18 03:34:18;;;;;;;9.23;8.30;;;24.20;99.90;;;;;;5054156;28;20542;-51
2022/08/18 03:36:45;;;;;;;8.77;7.87;;;24.10;99.90;;;;;;5053822;28;20505;-54
2022/08/18 03:39:13;;;;;;;9.10;8.13;;;24.10;99.90;;;;;;5054182;28;20451;-52
2022/08/18 03:41:46;;;;;;;12.90;8.60;;;24.10;99.90;;;;;;5056254;28;20474;-54
2022/08/18 03:44:14;;;;;;;10.20;9.10;;;24.00;99.90;;;;;;5058669;28;20450;-55
2022/08/18 03:46:42;;;;;;;9.70;8.40;;;24.00;99.90;;;;;;5058612;28;20466;-55
2022/08/18 03:49:10;;;;;;;11.00;9.40;;;23.80;99.90;;;;;;5059203;28;20447;-52
2022/08/18 03:51:37;;;;;;;9.27;8.30;;;23.80;99.90;;;;;;5058870;28;20467;-52
2022/08/18 03:54:07;;;;;;;10.43;9.33;;;23.70;99.90;;;;;;5059062;28;20486;-55
2022/08/18 03:56:38;;;;;;;9.07;8.13;;;23.70;99.90;;;;;;5059649;28;20467;-55
2022/08/18 03:59:07;;;;;;;10.27;8.97;;;23.60;99.90;;;;;;5058785;28;20446;-52
2022/08/18 04:01:39;;;;;;;10.60;8.93;;;23.60;99.90;;;;;;5057478;28;20475;-54
2022/08/18 04:04:07;;;;;;;19.83;9.83;;;23.50;99.90;;;;;;5057817;28;20435;-54
2022/08/18 04:06:40;;;;;;;12.67;10.53;;;23.50;99.90;;;;;;5057557;28;21002;-54
2022/08/18 04:09:10;;;;;;;11.47;9.80;;;23.50;99.90;;;;;;5057776;28;20518;-51
2022/08/18 04:11:42;;;;;;;10.40;9.30;;;23.50;99.90;;;;;;5057705;28;20467;-53
2022/08/18 04:14:09;;;;;;;11.83;10.60;;;23.50;99.90;;;;;;5057614;28;20789;-55
2022/08/18 04:16:37;;;;;;;11.83;10.20;;;23.50;99.90;;;;;;5057258;28;20477;-55
2022/08/18 04:19:04;;;;;;;11.30;9.60;;;23.50;99.90;;;;;;5057577;28;20462;-55
2022/08/18 04:21:32;;;;;;;12.57;11.13;;;23.50;99.90;;;;;;5057438;28;20807;-55
2022/08/18 04:24:01;;;;;;;11.43;10.27;;;23.60;99.90;;;;;;5057580;28;20454;-54
2022/08/18 04:26:28;;;;;;;10.87;9.73;;;23.60;99.90;;;;;;5057083;28;21042;-53
2022/08/18 04:28:58;;;;;;;11.53;9.83;;;23.70;99.90;;;;;;5057134;28;21010;-54
2022/08/18 04:31:25;;;;;;;12.10;9.13;;;23.70;99.90;;;;;;5057269;28;20799;-54
2022/08/18 04:33:52;;;;;;;14.30;9.33;;;23.70;99.90;;;;;;5057213;28;20493;-52
2022/08/18 04:36:19;;;;;;;10.63;9.50;;;23.70;99.90;;;;;;5057141;28;20942;-55
2022/08/18 04:38:46;;;;;;;14.10;9.40;;;23.80;99.90;;;;;;5056975;28;20506;-53
2022/08/18 04:41:15;;;;;;;11.30;10.10;;;23.80;99.90;;;;;;5057124;28;20467;-53
2022/08/18 04:43:42;;;;;;;12.50;10.87;;;23.80;99.90;;;;;;5056706;28;20443;-53
2022/08/18 04:46:13;;;;;;;10.00;8.87;;;23.80;99.90;;;;;;5056994;28;20486;-51
2022/08/18 04:48:42;;;;;;;11.20;9.57;;;23.80;99.90;;;;;;5057180;28;20431;-55
2022/08/18 04:51:12;;;;;;;12.20;9.40;;;23.90;99.90;;;;;;5056511;28;20471;-55
2022/08/18 04:53:45;;;;;;;11.33;10.10;;;23.90;99.90;;;;;;5056287;28;20800;-50
2022/08/18 04:56:20;;;;;;;15.13;9.13;;;24.00;99.90;;;;;;5056931;28;20797;-51
2022/08/18 04:58:50;;;;;;;13.87;9.27;;;24.00;99.90;;;;;;5056654;28;20870;-52
2022/08/18 05:01:20;;;;;;;12.00;9.10;;;24.10;99.90;;;;;;5056841;28;20463;-53
2022/08/18 05:03:48;;;;;;;10.73;9.63;;;24.20;99.90;;;;;;5056719;28;20470;-50
2022/08/18 05:06:15;;;;;;;13.43;9.20;;;24.30;99.90;;;;;;5057382;28;20471;-51
2022/08/18 05:08:42;;;;;;;9.63;8.70;;;24.30;99.90;;;;;;5056781;28;20935;-52
2022/08/18 05:11:10;;;;;;;11.87;10.03;;;24.40;99.90;;;;;;5056657;28;20471;-54
2022/08/18 05:13:37;;;;;;;13.60;10.60;;;24.40;99.90;;;;;;5056827;28;20479;-55
2022/08/18 05:16:05;;;;;;;14.77;10.23;;;24.40;99.90;;;;;;5056938;28;20542;-56
2022/08/18 05:18:37;;;;;;;21.90;8.77;;;24.50;99.90;;;;;;5057563;28;20879;-53
2022/08/18 05:21:04;;;;;;;11.23;10.10;;;24.50;99.90;;;;;;5057654;28;20475;-53
2022/08/18 05:23:31;;;;;;;10.20;9.20;;;24.50;99.90;;;;;;5057497;28;20450;-55
2022/08/18 05:26:00;;;;;;;20.20;9.53;;;24.60;99.90;;;;;;5057374;28;20529;-54
2022/08/18 05:28:27;;;;;;;9.30;8.50;;;24.60;99.90;;;;;;5056085;28;20900;-51
2022/08/18 05:30:55;;;;;;;11.83;10.10;;;24.70;99.90;;;;;;5056214;28;20443;-55
2022/08/18 05:33:23;;;;;;;10.80;9.27;;;24.70;99.90;;;;;;5056172;28;20468;-54
2022/08/18 05:36:02;;;;;;;12.13;10.13;;;24.70;99.90;;;;;;5056029;28;20526;-55
2022/08/18 05:38:43;;;;;;;10.30;9.20;;;24.70;99.90;;;;;;5055842;28;20435;-51
2022/08/18 05:41:14;;;;;;;12.10;10.57;;;24.70;99.90;;;;;;5055738;28;20448;-51
2022/08/18 05:43:45;;;;;;;10.47;8.90;;;24.80;99.90;;;;;;5055699;28;20424;-53
2022/08/18 05:46:12;;;;;;;17.20;9.20;;;24.80;99.90;;;;;;5055634;28;20493;-54
2022/08/18 05:48:39;;;;;;;10.53;9.43;;;24.90;99.90;;;;;;5055675;28;20888;-54
2022/08/18 05:51:15;;;;;;;12.70;10.70;;;24.90;99.90;;;;;;5055475;28;20453;-56
2022/08/18 05:56:46;;;;;;;13.67;9.87;;;25.00;99.90;;;;;;5043740;28;20514;-53
2022/08/18 05:59:17;;;;;;;12.10;9.47;;;25.00;99.90;;;;;;5055755;28;20530;-54
2022/08/18 06:01:51;;;;;;;12.07;10.17;;;25.10;99.90;;;;;;5055108;28;20475;-54
2022/08/18 06:04:30;;;;;;;11.93;9.97;;;25.10;99.90;;;;;;5055287;28;20442;-53
2022/08/18 06:07:04;;;;;;;10.80;9.40;;;25.20;99.90;;;;;;5054970;28;20541;-53
2022/08/18 06:09:36;;;;;;;11.07;9.60;;;25.30;99.90;;;;;;5055341;28;20517;-54
2022/08/18 06:12:09;;;;;;;10.63;9.50;;;25.30;99.90;;;;;;5058247;28;20534;-52
2022/08/18 06:14:40;;;;;;;10.77;9.20;;;25.40;99.90;;;;;;5056685;28;20940;-54
2022/08/18 06:17:14;;;;;;;11.37;10.27;;;25.50;99.90;;;;;;5061461;28;20978;-55
2022/08/18 06:19:50;;;;;;;10.53;9.53;;;25.60;99.90;;;;;;5069453;28;20417;-42
2022/08/18 06:22:28;;;;;;;12.50;9.07;;;25.60;99.90;;;;;;5079002;28;20469;-47
2022/08/18 06:25:03;;;;;;;11.70;10.20;;;25.60;99.90;;;;;;5078903;28;20419;-45
2022/08/18 06:27:38;;;;;;;12.33;10.70;;;25.70;99.90;;;;;;5070749;28;20506;-53
2022/08/18 06:30:12;;;;;;;11.83;10.47;;;25.80;99.90;;;;;;5054974;28;20431;-56
2022/08/18 06:32:53;;;;;;;11.60;10.40;;;25.80;99.90;;;;;;5055435;28;20467;-57
2022/08/18 06:35:32;;;;;;;12.13;9.97;;;25.80;99.90;;;;;;5055032;28;20432;-54
2022/08/18 06:41:01;;;;;;;12.63;10.70;;;25.90;99.90;;;;;;5054716;28;20866;-52
2022/08/18 06:43:32;;;;;;;29.60;11.67;;;26.00;99.90;;;;;;5054872;28;20441;-54
2022/08/18 06:45:59;;;;;;;20.17;10.73;;;26.00;99.90;;;;;;5054778;28;20454;-54
2022/08/18 06:48:35;;;;;;;15.93;10.77;;;26.10;99.90;;;;;;5054735;28;20447;-52
2022/08/18 06:51:06;;;;;;;9.77;8.77;;;26.20;99.90;;;;;;5054524;28;20876;-53
2022/08/18 06:53:53;;;;;;;11.83;10.40;;;26.20;99.90;;;;;;5054641;28;20486;-54
2022/08/18 06:56:24;;;;;;;13.10;10.70;;;26.30;99.90;;;;;;5054527;28;20440;-55
2022/08/18 06:58:54;;;;;;;22.10;11.63;;;26.40;99.90;;;;;;5054869;28;20431;-54
2022/08/18 07:01:23;;;;;;;11.33;8.93;;;26.40;99.90;;;;;;5054324;28;20512;-51
2022/08/18 07:03:55;;;;;;;10.50;9.13;;;26.50;99.90;;;;;;5054230;28;20454;-54
2022/08/18 07:06:31;;;;;;;10.33;9.07;;;26.60;99.90;;;;;;5054126;28;20477;-53
2022/08/18 07:09:21;;;;;;;15.20;8.90;;;26.70;99.90;;;;;;5054526;28;20427;-53
2022/08/18 07:12:04;;;;;;;10.80;8.73;;;26.90;99.90;;;;;;5054521;28;20500;-54
2022/08/18 07:14:41;;;;;;;10.27;9.27;;;27.00;99.90;;;;;;5054238;28;20540;-55
2022/08/18 07:17:10;;;;;;;10.20;9.17;;;27.10;99.90;;;;;;5054188;28;20478;-53
2022/08/18 07:19:37;;;;;;;11.70;10.50;;;27.20;99.90;;;;;;5054208;28;20435;-53
2022/08/18 07:22:07;;;;;;;10.30;9.17;;;27.30;99.90;;;;;;5054751;28;20458;-52
2022/08/18 07:24:40;;;;;;;10.13;9.07;;;27.50;99.90;;;;;;5054921;28;20491;-54
2022/08/18 07:27:10;;;;;;;13.80;11.10;;;27.60;99.90;;;;;;5054639;28;20755;-56
2022/08/18 07:29:39;;;;;;;12.40;10.33;;;27.60;99.90;;;;;;5054420;28;20522;-55
2022/08/18 07:32:12;;;;;;;13.20;10.60;;;27.70;99.90;;;;;;5054198;28;20445;-54
2022/08/18 07:34:43;;;;;;;12.13;9.53;;;27.70;99.90;;;;;;5054091;28;20467;-55
2022/08/18 07:37:27;;;;;;;9.83;8.77;;;27.70;99.90;;;;;;5054068;28;20518;-53
2022/08/18 07:40:01;;;;;;;10.07;9.10;;;27.80;99.90;;;;;;5054113;28;20771;-55
2022/08/18 07:42:36;;;;;;;10.53;9.47;;;27.80;99.90;;;;;;5054213;28;20566;-56
2022/08/18 07:45:09;;;;;;;12.53;9.97;;;27.80;99.90;;;;;;5053743;28;20434;-55
2022/08/18 07:47:44;;;;;;;10.70;9.70;;;27.80;99.90;;;;;;5054179;28;20545;-55
2022/08/18 07:50:11;;;;;;;10.30;9.30;;;27.90;99.90;;;;;;5054129;28;20493;-52
2022/08/18 07:52:44;;;;;;;11.80;10.10;;;27.90;99.90;;;;;;5054193;28;20478;-58
2022/08/18 07:55:23;;;;;;;12.43;9.70;;;28.00;99.90;;;;;;5054478;28;20475;-58
2022/08/18 07:57:57;;;;;;;11.77;9.50;;;28.00;99.90;;;;;;5054118;28;20883;-51
2022/08/18 08:00:29;;;;;;;11.57;9.40;;;28.00;99.90;;;;;;5053968;28;20537;-51
2022/08/18 08:03:06;;;;;;;9.77;8.50;;;28.10;99.90;;;;;;5053564;28;20463;-51
2022/08/18 08:05:43;;;;;;;11.23;8.97;;;28.10;99.90;;;;;;5053597;28;20424;-53
2022/08/18 08:08:21;;;;;;;10.73;9.73;;;28.10;99.90;;;;;;5053900;28;20529;-53
2022/08/18 08:11:03;;;;;;;10.50;9.40;;;28.10;99.90;;;;;;5053616;28;20928;-50
2022/08/18 08:13:39;;;;;;;11.10;10.00;;;28.20;99.90;;;;;;5053711;28;20490;-53
2022/08/18 08:16:15;;;;;;;10.03;9.03;;;28.30;99.90;;;;;;5053804;28;20431;-57
2022/08/18 08:18:55;;;;;;;10.77;9.00;;;28.40;99.90;;;;;;5054342;28;20479;-55
2022/08/18 08:21:25;;;;;;;11.33;9.57;;;28.50;99.90;;;;;;5054657;28;20443;-60
2022/08/18 08:23:56;;;;;;;11.40;10.03;;;28.60;99.90;;;;;;5053579;28;20475;-54
2022/08/18 08:26:47;;;;;;;12.17;9.30;;;28.70;99.90;;;;;;5053471;28;20481;-52
2022/08/18 08:29:24;;;;;;;14.80;10.30;;;28.70;99.90;;;;;;5054170;28;20482;-54
2022/08/18 08:31:57;;;;;;;11.90;10.50;;;28.80;99.90;;;;;;5057282;28;20442;-53
2022/08/18 08:34:33;;;;;;;10.33;9.33;;;28.90;99.90;;;;;;5056897;28;20495;-54
2022/08/18 08:37:02;;;;;;;11.60;9.40;;;29.00;99.90;;;;;;5057255;28;20442;-52
2022/08/18 08:39:39;;;;;;;11.80;10.10;;;29.10;99.90;;;;;;5056910;28;20463;-55
2022/08/18 08:42:14;;;;;;;9.90;8.93;;;29.00;99.90;;;;;;5057023;28;20453;-53
2022/08/18 08:44:48;;;;;;;15.43;13.17;;;29.10;99.90;;;;;;5056994;28;20435;-55
2022/08/18 08:47:21;;;;;;;12.70;11.40;;;29.20;99.90;;;;;;5056645;28;20478;-53
2022/08/18 08:49:52;;;;;;;12.60;10.83;;;29.30;99.90;;;;;;5056616;28;20428;-53
2022/08/18 08:52:24;;;;;;;14.37;10.70;;;29.40;99.90;;;;;;5056680;28;20522;-54
2022/08/18 08:54:56;;;;;;;10.70;9.67;;;29.60;99.90;;;;;;5056925;28;20578;-59
2022/08/18 08:57:31;;;;;;;10.53;9.53;;;29.80;99.90;;;;;;5056563;28;20415;-55
2022/08/18 09:00:01;;;;;;;10.83;9.73;;;30.00;99.90;;;;;;5056406;28;20892;-52
2022/08/18 09:03:03;;;;;;;10.87;9.70;;;30.30;99.90;;;;;;5057012;28;20833;-51
2022/08/18 09:05:36;;;;;;;17.20;11.60;;;30.40;99.90;;;;;;5049523;28;20453;-51
2022/08/18 09:08:45;;;;;;;12.40;11.20;;;30.50;99.90;;;;;;5056484;28;20574;-54
2022/08/18 09:11:41;;;;;;;12.40;10.80;;;30.70;99.90;;;;;;5056987;28;20443;-52
2022/08/18 09:14:40;;;;;;;12.07;10.97;;;31.00;99.90;;;;;;5016871;28;20491;-54
2022/08/18 09:17:23;;;;;;;12.83;9.63;;;31.20;99.70;;;;;;5056523;28;20428;-54
2022/08/18 09:20:06;;;;;;;11.20;9.43;;;31.50;99.20;;;;;;5056337;28;20447;-54
2022/08/18 09:22:44;;;;;;;12.07;9.43;;;32.10;97.30;;;;;;5056150;28;20524;-53
2022/08/18 09:25:31;;;;;;;12.03;9.90;;;33.10;94.50;;;;;;5056423;28;20423;-51
2022/08/18 09:28:10;;;;;;;11.07;9.67;;;34.30;89.80;;;;;;5055849;28;20457;-54
2022/08/18 09:30:42;;;;;;;11.03;10.03;;;35.40;80.80;;;;;;5056087;28;20439;-54
2022/08/18 09:33:21;;;;;;;10.90;9.80;;;36.30;73.60;;;;;;5056054;28;20510;-52
2022/08/18 09:36:23;;;;;;;12.10;10.90;;;37.10;67.90;;;;;;5056022;28;20867;-54
2022/08/18 09:41:49;;;;;;;10.80;9.70;;;38.20;60.50;;;;;;5056059;28;20454;-55
2022/08/18 09:44:55;;;;;;;12.47;9.87;;;38.40;58.70;;;;;;5055920;28;20544;-54
2022/08/18 09:48:22;;;;;;;11.23;10.13;;;38.50;57.70;;;;;;5055545;28;20466;-55
2022/08/18 09:51:23;;;;;;;11.80;10.60;;;38.20;56.80;;;;;;5055804;28;20435;-53
2022/08/18 09:54:12;;;;;;;11.90;10.80;;;37.60;57.20;;;;;;5055654;28;20518;-53
2022/08/18 09:57:17;;;;;;;15.30;13.80;;;37.20;57.80;;;;;;5056125;28;20484;-59
2022/08/18 10:00:08;;;;;;;13.57;10.80;;;36.90;58.60;;;;;;5056469;28;20485;-56
2022/08/18 10:03:26;;;;;;;13.50;11.83;;;37.00;59.00;;;;;;5056318;28;20467;-62
2022/08/18 10:06:07;;;;;;;11.67;9.90;;;37.10;58.60;;;;;;5056684;28;20490;-54
2022/08/18 10:09:01;;;;;;;9.87;8.93;;;37.20;57.30;;;;;;5056344;28;20508;-51
2022/08/18 10:11:56;;;;;;;13.00;9.77;;;37.10;57.40;;;;;;5055116;28;20443;-55
2022/08/18 10:14:38;;;;;;;10.77;9.77;;;36.80;58.00;;;;;;5054706;28;20491;-48
2022/08/18 10:17:15;;;;;;;9.83;8.93;;;37.00;57.20;;;;;;5055244;28;20431;-51
2022/08/18 10:19:55;;;;;;;9.43;8.60;;;37.40;57.70;;;;;;5056172;28;20829;-54
2022/08/18 10:22:39;;;;;;;9.57;8.67;;;37.30;56.20;;;;;;5056980;28;20432;-56
2022/08/18 10:25:10;;;;;;;9.83;9.00;;;36.90;57.10;;;;;;5037706;28;20524;-52
2022/08/18 10:27:49;;;;;;;11.07;10.00;;;36.40;55.40;;;;;;5055080;28;20435;-53
2022/08/18 10:30:45;;;;;;;10.87;9.03;;;36.00;57.50;;;;;;5055114;28;20474;-53
2022/08/18 10:33:12;;;;;;;10.93;9.63;;;36.20;58.00;;;;;;5054901;28;20513;-59
2022/08/18 10:35:58;;;;;;;11.37;10.37;;;36.70;57.80;;;;;;5055271;28;20576;-56
2022/08/18 10:38:40;;;;;;;8.77;7.70;;;37.30;56.80;;;;;;5055730;28;20440;-56
2022/08/18 10:41:19;;;;;;;10.23;9.00;;;37.80;55.00;;;;;;5055444;28;20427;-53
2022/08/18 10:43:48;;;;;;;9.83;8.60;;;38.10;55.00;;;;;;5055247;28;20475;-56
2022/08/18 10:46:17;;;;;;;8.83;7.93;;;38.40;54.60;;;;;;5056952;28;20446;-55
2022/08/18 10:48:44;;;;;;;8.40;7.60;;;38.40;52.70;;;;;;5055108;28;20516;-52
2022/08/18 10:51:18;;;;;;;8.50;7.70;;;38.40;52.50;;;;;;5054079;28;20888;-52
2022/08/18 10:53:54;;;;;;;9.47;8.50;;;38.30;52.20;;;;;;5054808;28;20598;-55
2022/08/18 10:56:31;;;;;;;9.53;8.63;;;38.10;53.10;;;;;;5054394;28;20436;-54
2022/08/18 10:59:10;;;;;;;9.23;8.43;;;37.90;54.90;;;;;;5054301;28;20858;-53
2022/08/18 11:02:02;;;;;;;9.07;7.47;;;37.60;52.60;;;;;;5054490;28;20929;-56
2022/08/18 11:04:32;;;;;;;8.43;7.63;;;37.40;52.70;;;;;;5054388;28;20470;-52
2022/08/18 11:07:09;;;;;;;9.50;8.30;;;37.30;52.00;;;;;;5055534;28;20447;-51
2022/08/18 11:09:38;;;;;;;8.10;7.30;;;37.20;51.90;;;;;;5055511;28;20467;-55
2022/08/18 11:12:06;;;;;;;8.67;7.87;;;36.90;53.10;;;;;;5054595;28;20449;-58
2022/08/18 11:15:09;;;;;;;8.93;8.03;;;36.90;52.70;;;;;;5054136;28;20490;-50
2022/08/18 11:17:48;;;;;;;8.10;7.30;;;36.80;54.20;;;;;;5052457;28;20561;-51
2022/08/18 11:20:17;;;;;;;8.20;7.50;;;36.80;54.10;;;;;;5054223;28;20473;-53
2022/08/18 11:22:52;;;;;;;8.47;7.63;;;36.80;53.30;;;;;;5054333;28;20465;-51
2022/08/18 11:25:25;;;;;;;7.97;7.27;;;36.70;52.60;;;;;;5053904;28;20469;-51
2022/08/18 11:27:51;;;;;;;8.77;7.97;;;36.70;52.90;;;;;;5054369;28;20435;-53
2022/08/18 11:30:19;;;;;;;7.77;7.10;;;36.70;53.90;;;;;;5055190;28;20471;-57
2022/08/18 11:32:48;;;;;;;9.03;7.23;;;36.60;53.60;;;;;;5055801;28;20444;-53
2022/08/18 11:35:17;;;;;;;8.90;7.80;;;36.60;52.10;;;;;;5054610;28;21002;-54
2022/08/18 11:37:46;;;;;;;8.73;7.43;;;36.60;53.00;;;;;;5054509;28;20451;-52
2022/08/18 11:40:28;;;;;;;7.83;7.13;;;36.60;52.70;;;;;;5054609;28;20788;-54
2022/08/18 11:43:00;;;;;;;7.80;7.00;;;36.70;52.70;;;;;;5055928;28;20435;-51
2022/08/18 11:45:31;;;;;;;13.13;11.30;;;36.60;53.20;;;;;;5054160;28;20791;-54
2022/08/18 11:48:18;;;;;;;10.53;9.53;;;36.50;53.00;;;;;;5055907;28;20427;-57
2022/08/18 11:50:48;;;;;;;8.00;7.20;;;36.50;52.70;;;;;;5055048;28;20557;-53
2022/08/18 11:53:24;;;;;;;9.07;8.30;;;36.40;53.40;;;;;;5053772;28;20922;-52
2022/08/18 11:56:22;;;;;;;9.00;8.03;;;36.10;54.30;;;;;;5053882;28;20490;-50
2022/08/18 11:58:52;;;;;;;7.67;6.97;;;36.00;53.60;;;;;;5054109;28;20427;-53
2022/08/18 12:01:33;;;;;;;7.20;6.60;;;36.10;53.40;;;;;;5053807;28;21144;-53
2022/08/18 12:04:15;;;;;;;8.03;7.23;;;36.20;53.00;;;;;;5055746;28;20514;-52
2022/08/18 12:07:00;;;;;;;7.63;6.93;;;36.30;53.00;;;;;;5057708;28;20443;-51
2022/08/18 12:09:36;;;;;;;7.83;7.13;;;36.10;51.50;;;;;;5057832;28;20492;-54
2022/08/18 12:12:07;;;;;;;6.77;6.20;;;36.10;52.40;;;;;;5059775;28;20522;-56
2022/08/18 12:14:52;;;;;;;7.87;7.20;;;36.00;51.60;;;;;;5057976;28;20494;-53
2022/08/18 12:17:19;;;;;;;7.27;6.67;;;36.00;51.90;;;;;;5057651;28;20439;-54
2022/08/18 12:19:46;;;;;;;6.70;6.00;;;36.10;51.60;;;;;;5057242;28;20784;-53
2022/08/18 12:22:17;;;;;;;6.30;5.70;;;36.10;51.40;;;;;;5057209;28;20443;-50
2022/08/18 12:24:45;;;;;;;7.37;6.57;;;36.10;51.50;;;;;;5057419;28;20495;-54
2022/08/18 12:27:14;;;;;;;7.40;6.70;;;36.10;51.10;;;;;;5057385;28;20450;-53
2022/08/18 12:29:41;;;;;;;8.47;7.37;;;36.10;51.50;;;;;;5057324;28;20466;-49
2022/08/18 12:32:08;;;;;;;8.50;7.43;;;36.10;51.20;;;;;;5057419;28;20439;-51
2022/08/18 12:34:35;;;;;;;8.60;7.53;;;35.90;52.40;;;;;;5058660;28;20443;-54
2022/08/18 12:37:02;;;;;;;7.97;7.27;;;35.60;51.90;;;;;;5057975;28;20420;-48
2022/08/18 12:39:31;;;;;;;7.60;6.90;;;35.60;52.40;;;;;;5057217;28;20458;-54
2022/08/18 12:41:58;;;;;;;7.60;6.70;;;35.60;52.40;;;;;;5057365;28;20509;-52
2022/08/18 12:44:26;;;;;;;6.73;6.00;;;35.60;52.60;;;;;;5057155;28;20451;-53
2022/08/18 12:46:53;;;;;;;7.00;6.00;;;35.60;52.30;;;;;;5057023;28;20431;-53
2022/08/18 12:49:23;;;;;;;7.43;6.83;;;35.60;52.00;;;;;;5057068;28;20455;-55
2022/08/18 12:51:50;;;;;;;7.47;6.73;;;35.70;51.70;;;;;;5057174;28;20534;-52
2022/08/18 12:54:17;;;;;;;8.07;7.43;;;35.80;52.90;;;;;;5057083;28;20447;-52
2022/08/18 12:56:48;;;;;;;7.97;7.23;;;35.90;51.60;;;;;;5058071;28;20509;-48
2022/08/18 12:59:15;;;;;;;6.97;6.37;;;36.10;52.20;;;;;;5057200;28;20466;-50
2022/08/18 13:01:43;;;;;;;7.30;6.60;;;36.10;51.40;;;;;;5056475;28;20994;-51
2022/08/18 13:04:10;;;;;;;6.90;6.17;;;36.10;50.10;;;;;;5056428;28;20542;-54
2022/08/18 13:06:40;;;;;;;6.80;6.20;;;36.10;51.60;;;;;;5056726;28;20915;-52
2022/08/18 13:09:07;;;;;;;7.87;6.90;;;36.00;51.50;;;;;;5056553;28;20451;-52
2022/08/18 13:11:34;;;;;;;9.03;7.03;;;36.00;52.00;;;;;;5057425;28;20467;-55
2022/08/18 13:14:00;;;;;;;7.87;7.13;;;36.00;52.10;;;;;;5057674;28;20443;-51
2022/08/18 13:16:30;;;;;;;7.50;6.70;;;35.90;52.00;;;;;;5056637;28;20485;-55
2022/08/18 13:18:59;;;;;;;8.67;7.90;;;35.90;51.90;;;;;;5056993;28;20440;-54
2022/08/18 13:21:26;;;;;;;7.80;7.20;;;35.90;51.80;;;;;;5056747;28;20475;-54
2022/08/18 13:23:53;;;;;;;8.20;7.50;;;35.70;52.20;;;;;;5056482;28;20537;-52